Tuttle, Kentucky
Current Conditions -  °F | °C
As of 9:53 PM on Tuesday 25 Nov 2014 (Local Time) from KLOZ Reporting Station
Clear Clear  
Wind Chill: 43°   Ceiling: Unl
Heat Index: 43°   Visibility: 10mi
Dew Point: 29°   Wind: 0mph
Humidity: 58%   Direction: NA
Pressure: 30.12"   Gusts: NA
Location:  37.1333°N, 84.1274°W
Report Text: KLOZ 260253Z AUTO 00000KT 10SM CLR 06/M02 A3012 RMK AO2 SLP202 T00611017 50006
Loading
Personal Weather Stations






























Interactive Weather Map New forecast layout! Learn more

10-Day Weather Forecast

Advertisements
Track Severe Weather on mobile